Time;durP1;ratioP1;P1;durP2;ratioP2;P2;SDS_P1;SDS_P2;PMS_P1;PMS_P2;Temp;Humidity;BMP_temperature;BMP_pressure;BME280_temperature;BME280_humidity;BME280_pressure;Samples;Min_cycle;Max_cycle;Signal;HPM_P1;HPM_P2
2023/04/15 00:00:38;;;;;;;5.35;4.85;;;7.30;99.90;;;;;;5060554;28;20116;-57
2023/04/15 00:03:05;;;;;;;6.25;5.65;;;7.30;99.90;;;;;;5059543;28;20140;-57
2023/04/15 00:05:32;;;;;;;5.07;4.68;;;7.30;99.90;;;;;;5055211;28;20114;-56
2023/04/15 00:07:57;;;;;;;5.82;5.30;;;7.30;99.90;;;;;;5058865;28;20814;-58
2023/04/15 00:10:24;;;;;;;6.25;5.75;;;7.30;99.90;;;;;;5057633;28;20052;-57
2023/04/15 00:12:51;;;;;;;6.90;6.18;;;7.20;99.90;;;;;;5058676;28;20090;-57
2023/04/15 00:15:17;;;;;;;6.13;5.63;;;7.20;99.90;;;;;;5061001;28;20032;-56
2023/04/15 00:17:42;;;;;;;6.38;5.85;;;7.20;99.90;;;;;;5056970;28;20040;-57
2023/04/15 00:20:09;;;;;;;7.28;6.45;;;7.20;99.90;;;;;;5061637;28;20120;-58
2023/04/15 00:22:35;;;;;;;10.50;7.00;;;7.20;99.90;;;;;;5060074;28;20040;-58
2023/04/15 00:25:01;;;;;;;6.57;5.72;;;7.10;99.90;;;;;;5058483;28;20049;-57
2023/04/15 00:27:27;;;;;;;7.38;6.68;;;7.10;99.90;;;;;;5060123;28;20123;-57
2023/04/15 00:29:52;;;;;;;6.38;5.88;;;7.10;99.90;;;;;;5057121;28;20044;-56
2023/04/15 00:32:19;;;;;;;10.63;6.50;;;7.10;99.90;;;;;;5058082;28;20128;-58
2023/04/15 00:34:45;;;;;;;6.85;6.18;;;7.00;99.90;;;;;;5061510;28;20033;-58
2023/04/15 00:37:11;;;;;;;6.97;6.20;;;7.00;99.90;;;;;;5059816;28;20119;-56
2023/04/15 00:39:37;;;;;;;8.13;6.25;;;7.00;99.90;;;;;;5057815;28;20036;-57
2023/04/15 00:42:03;;;;;;;8.40;7.60;;;7.00;99.90;;;;;;5057280;28;20251;-57
2023/04/15 00:44:29;;;;;;;6.93;6.32;;;7.00;99.90;;;;;;5060755;28;20032;-56
2023/04/15 00:46:56;;;;;;;6.90;6.22;;;7.00;99.90;;;;;;5058570;28;20035;-57
2023/04/15 00:49:22;;;;;;;7.35;6.70;;;6.90;99.90;;;;;;5051891;28;20047;-58
2023/04/15 00:51:48;;;;;;;7.38;6.78;;;6.90;99.90;;;;;;5057604;28;20511;-56
2023/04/15 00:54:15;;;;;;;8.00;7.30;;;6.90;99.90;;;;;;5054412;28;20033;-57
2023/04/15 00:56:41;;;;;;;7.68;6.82;;;6.90;99.90;;;;;;5058352;28;20029;-57
2023/04/15 00:59:07;;;;;;;8.57;6.43;;;6.80;99.90;;;;;;5057263;28;20082;-58
2023/04/15 01:01:35;;;;;;;7.07;6.47;;;6.80;99.90;;;;;;5056990;28;20110;-56
2023/04/15 01:04:01;;;;;;;8.20;6.72;;;6.80;99.90;;;;;;5059808;28;20107;-56
2023/04/15 01:06:28;;;;;;;7.75;6.95;;;6.80;99.90;;;;;;5056133;28;20033;-58
2023/04/15 01:08:54;;;;;;;7.43;6.82;;;6.70;99.90;;;;;;5057976;28;20036;-57
2023/04/15 01:11:20;;;;;;;8.10;7.38;;;6.70;99.90;;;;;;5058094;28;20052;-57
2023/04/15 01:13:47;;;;;;;8.95;7.00;;;6.70;99.90;;;;;;5053299;28;20775;-58
2023/04/15 01:16:13;;;;;;;9.77;7.85;;;6.60;99.90;;;;;;5054395;28;20079;-56
2023/04/15 01:18:39;;;;;;;8.05;7.20;;;6.60;99.90;;;;;;5058900;28;20040;-57
2023/04/15 01:21:05;;;;;;;8.38;7.68;;;6.60;99.90;;;;;;5059462;28;20501;-57
2023/04/15 01:23:36;;;;;;;9.10;8.18;;;6.60;99.90;;;;;;5056800;28;20806;-57
2023/04/15 01:26:02;;;;;;;12.43;8.35;;;6.60;99.90;;;;;;5057329;28;20064;-56
2023/04/15 01:28:28;;;;;;;8.02;7.22;;;6.60;99.90;;;;;;5058497;28;20052;-57
2023/04/15 01:31:13;;;;;;;8.75;7.95;;;6.60;99.90;;;;;;5060149;28;20128;-56
2023/04/15 01:33:41;;;;;;;10.70;8.63;;;6.60;99.90;;;;;;5058440;28;20088;-57
2023/04/15 01:36:08;;;;;;;7.68;7.07;;;6.60;99.90;;;;;;5057542;28;20033;-57
2023/04/15 01:38:35;;;;;;;7.95;7.25;;;6.60;99.90;;;;;;5054732;28;20690;-57
2023/04/15 01:41:03;;;;;;;8.30;7.50;;;6.60;99.90;;;;;;5056994;28;20033;-58
2023/04/15 01:43:28;;;;;;;7.47;6.75;;;6.50;99.90;;;;;;5056502;28;20028;-58
2023/04/15 01:45:55;;;;;;;7.35;6.75;;;6.50;99.90;;;;;;5059068;28;20060;-57
2023/04/15 01:48:21;;;;;;;7.93;7.13;;;6.50;99.90;;;;;;5056443;28;20044;-58
2023/04/15 01:50:47;;;;;;;7.75;7.13;;;6.50;99.90;;;;;;5056378;28;20029;-61
2023/04/15 01:53:14;;;;;;;8.10;6.90;;;6.50;99.90;;;;;;5060591;28;20043;-58
2023/04/15 01:55:40;;;;;;;7.60;6.80;;;6.50;99.90;;;;;;5061909;28;20025;-58
2023/04/15 01:58:06;;;;;;;7.28;6.53;;;6.50;99.90;;;;;;5056266;28;20048;-60
2023/04/15 02:00:32;;;;;;;9.75;8.02;;;6.50;99.90;;;;;;5060370;28;20385;-60
2023/04/15 02:02:58;;;;;;;7.97;7.30;;;6.50;99.90;;;;;;5061912;28;20036;-59
2023/04/15 02:05:24;;;;;;;7.05;6.32;;;6.50;99.90;;;;;;5057821;28;20029;-59
2023/04/15 02:07:50;;;;;;;10.70;7.30;;;6.50;99.90;;;;;;5063076;28;20062;-59
2023/04/15 02:10:15;;;;;;;7.78;7.07;;;6.50;99.90;;;;;;5060457;28;20812;-59
2023/04/15 02:12:41;;;;;;;7.68;7.05;;;6.50;99.90;;;;;;5060280;28;20090;-60
2023/04/15 02:15:09;;;;;;;7.25;6.50;;;6.50;99.90;;;;;;5057558;28;20493;-59
2023/04/15 02:17:35;;;;;;;7.53;6.65;;;6.50;99.90;;;;;;5061319;28;20028;-59
2023/04/15 02:20:01;;;;;;;7.10;6.45;;;6.50;99.90;;;;;;5065077;28;20032;-60
2023/04/15 02:22:28;;;;;;;7.18;6.47;;;6.50;99.90;;;;;;5062575;28;20036;-60
2023/04/15 02:24:53;;;;;;;8.00;7.25;;;6.50;99.90;;;;;;5059771;28;20016;-60
2023/04/15 02:27:19;;;;;;;6.95;6.00;;;6.50;99.90;;;;;;5060304;28;20052;-59
2023/04/15 02:29:45;;;;;;;6.97;6.38;;;6.50;99.90;;;;;;5060034;28;20102;-60
2023/04/15 02:32:13;;;;;;;7.28;6.63;;;6.50;99.90;;;;;;5061725;28;20084;-58
2023/04/15 02:34:41;;;;;;;7.28;6.68;;;6.50;99.90;;;;;;5061952;28;20056;-59
2023/04/15 02:37:11;;;;;;;6.50;5.90;;;6.50;99.90;;;;;;5063011;28;20493;-58
2023/04/15 02:39:37;;;;;;;7.78;6.35;;;6.50;99.90;;;;;;5061103;28;20528;-61
2023/04/15 02:42:04;;;;;;;8.75;6.90;;;6.50;99.90;;;;;;5058486;28;20039;-59
2023/04/15 02:44:31;;;;;;;6.90;6.40;;;6.50;99.90;;;;;;5060669;28;20025;-57
2023/04/15 02:46:57;;;;;;;8.35;6.60;;;6.50;99.90;;;;;;5061881;28;20383;-56
2023/04/15 02:49:24;;;;;;;8.43;6.38;;;6.50;99.90;;;;;;5061993;28;20024;-57
2023/04/15 02:51:50;;;;;;;10.32;7.00;;;6.50;99.90;;;;;;5060400;28;20032;-57
2023/04/15 02:54:21;;;;;;;7.70;6.45;;;6.40;99.90;;;;;;5061016;28;20037;-58
2023/04/15 02:56:47;;;;;;;6.80;6.20;;;6.40;99.90;;;;;;5060172;28;20071;-58
2023/04/15 02:59:13;;;;;;;10.20;7.65;;;6.30;99.90;;;;;;5060088;28;20112;-58
2023/04/15 03:01:38;;;;;;;8.27;7.45;;;6.30;99.90;;;;;;5057826;28;20457;-58
2023/04/15 03:04:04;;;;;;;7.80;7.00;;;6.30;99.90;;;;;;5062264;28;20036;-58
2023/04/15 03:06:30;;;;;;;7.45;6.65;;;6.30;99.90;;;;;;5059105;28;20576;-57
2023/04/15 03:08:56;;;;;;;7.38;6.40;;;6.30;99.90;;;;;;5061504;28;20025;-57
2023/04/15 03:11:22;;;;;;;8.73;6.47;;;6.20;99.90;;;;;;5059340;28;20032;-58
2023/04/15 03:13:47;;;;;;;8.73;7.45;;;6.20;99.90;;;;;;5059899;28;20033;-58
2023/04/15 03:16:13;;;;;;;7.90;7.20;;;6.20;99.90;;;;;;5062194;28;20102;-58
2023/04/15 03:18:39;;;;;;;8.18;7.43;;;6.20;99.90;;;;;;5060987;28;20020;-58
2023/04/15 03:21:05;;;;;;;8.30;7.45;;;6.20;99.90;;;;;;5059022;28;20079;-57
2023/04/15 03:23:31;;;;;;;9.00;7.38;;;6.20;99.90;;;;;;5061322;28;20066;-56
2023/04/15 03:25:58;;;;;;;8.13;7.32;;;6.20;99.90;;;;;;5059793;28;20029;-59
2023/04/15 03:28:24;;;;;;;8.57;7.57;;;6.20;99.90;;;;;;5059490;28;20778;-57
2023/04/15 03:30:50;;;;;;;9.82;8.65;;;6.20;99.90;;;;;;5060900;28;20108;-56
2023/04/15 03:33:15;;;;;;;9.63;8.65;;;6.20;99.90;;;;;;5056132;28;20504;-58
2023/04/15 03:35:41;;;;;;;8.90;8.00;;;6.20;99.90;;;;;;5057808;28;20033;-59
2023/04/15 03:38:07;;;;;;;9.07;7.95;;;6.20;99.90;;;;;;5056191;28;20041;-57
2023/04/15 03:40:33;;;;;;;8.65;7.75;;;6.20;99.90;;;;;;5059347;28;20032;-57
2023/04/15 03:42:59;;;;;;;8.27;7.50;;;6.20;99.90;;;;;;5058761;28;20038;-56
2023/04/15 03:45:25;;;;;;;10.00;9.10;;;6.20;99.90;;;;;;5058621;28;20035;-56
2023/04/15 03:47:50;;;;;;;10.18;9.27;;;6.20;99.90;;;;;;5059584;28;20567;-59
2023/04/15 03:50:16;;;;;;;9.32;8.43;;;6.20;99.90;;;;;;5055493;28;20107;-57
2023/04/15 03:52:42;;;;;;;9.38;8.48;;;6.20;99.90;;;;;;5059720;28;20696;-58
2023/04/15 03:55:08;;;;;;;9.50;8.57;;;6.10;99.90;;;;;;5058340;28;20028;-58
2023/04/15 03:57:36;;;;;;;10.65;8.38;;;6.10;99.90;;;;;;5057952;28;20049;-57
2023/04/15 04:00:04;;;;;;;9.98;8.70;;;6.10;99.90;;;;;;5063597;28;20048;-56
2023/04/15 04:02:29;;;;;;;10.32;9.00;;;6.10;99.90;;;;;;5057572;28;20029;-57
2023/04/15 04:04:55;;;;;;;9.73;8.80;;;6.10;99.90;;;;;;5059330;28;20032;-57
2023/04/15 04:07:23;;;;;;;10.35;9.32;;;6.00;99.90;;;;;;5059459;28;20035;-57
2023/04/15 04:09:49;;;;;;;10.45;9.55;;;6.00;99.90;;;;;;5057238;28;20044;-57
2023/04/15 04:12:14;;;;;;;10.63;8.75;;;6.00;99.90;;;;;;5057343;28;20029;-59
2023/04/15 04:14:40;;;;;;;9.32;8.43;;;6.00;99.90;;;;;;5060384;28;20860;-58
2023/04/15 04:17:06;;;;;;;10.75;9.15;;;6.00;99.90;;;;;;5055827;28;20024;-59
2023/04/15 04:19:31;;;;;;;10.15;9.15;;;5.90;99.90;;;;;;5059534;28;20416;-57
2023/04/15 04:21:57;;;;;;;10.45;9.55;;;5.90;99.90;;;;;;5057130;28;20563;-58
2023/04/15 04:24:22;;;;;;;11.02;9.90;;;5.90;99.90;;;;;;5052714;28;20036;-60
2023/04/15 04:26:48;;;;;;;13.65;11.75;;;5.90;99.90;;;;;;5053766;28;20060;-59
2023/04/15 04:29:14;;;;;;;11.77;10.70;;;5.90;99.90;;;;;;5057654;28;20024;-58
2023/04/15 04:31:39;;;;;;;12.25;11.02;;;5.90;99.90;;;;;;5056930;28;20465;-58
2023/04/15 04:34:05;;;;;;;17.42;13.35;;;5.90;99.90;;;;;;5056500;28;20071;-59
2023/04/15 04:36:31;;;;;;;12.65;11.45;;;5.90;99.90;;;;;;5054949;28;20021;-57
2023/04/15 04:38:56;;;;;;;12.45;11.35;;;5.80;99.90;;;;;;5055343;28;20123;-57
2023/04/15 04:41:22;;;;;;;13.02;11.80;;;5.80;99.90;;;;;;5054160;28;20107;-58
2023/04/15 04:43:48;;;;;;;13.15;11.90;;;5.80;99.90;;;;;;5057498;28;20029;-58
2023/04/15 04:46:13;;;;;;;13.77;12.40;;;5.80;99.90;;;;;;5056520;28;20013;-58
2023/04/15 04:48:39;;;;;;;12.43;11.23;;;5.80;99.90;;;;;;5051208;28;20044;-57
2023/04/15 04:51:06;;;;;;;13.57;12.20;;;5.80;99.90;;;;;;5056755;28;20035;-58
2023/04/15 04:53:32;;;;;;;13.18;12.00;;;5.80;99.90;;;;;;5056054;28;20063;-58
2023/04/15 04:55:57;;;;;;;13.45;11.52;;;5.80;99.90;;;;;;5057409;28;20037;-56
2023/04/15 04:58:23;;;;;;;13.95;12.55;;;5.80;99.90;;;;;;5057708;28;20063;-59
2023/04/15 05:00:49;;;;;;;15.02;11.90;;;5.80;99.90;;;;;;5069502;28;20415;-58
2023/04/15 05:03:14;;;;;;;14.77;12.18;;;5.80;99.90;;;;;;5056526;28;20513;-59
2023/04/15 05:05:40;;;;;;;14.60;12.15;;;5.80;99.90;;;;;;5040743;28;20123;-57
2023/04/15 05:08:06;;;;;;;13.35;12.05;;;5.80;99.90;;;;;;5059571;28;21237;-58
2023/04/15 05:10:32;;;;;;;11.65;10.45;;;5.80;99.90;;;;;;5055454;28;20028;-58
2023/04/15 05:12:58;;;;;;;11.65;10.55;;;5.80;99.90;;;;;;5053635;28;20597;-58
2023/04/15 05:15:24;;;;;;;16.08;11.98;;;5.80;99.90;;;;;;5055309;28;20106;-58
2023/04/15 05:17:50;;;;;;;13.38;11.60;;;5.80;99.90;;;;;;5052974;28;20033;-57
2023/04/15 05:20:16;;;;;;;13.73;12.43;;;5.80;99.90;;;;;;5053249;28;20618;-58
2023/04/15 05:22:41;;;;;;;12.80;11.52;;;5.80;99.90;;;;;;5052791;28;20032;-57
2023/04/15 05:25:07;;;;;;;13.00;11.70;;;5.70;99.90;;;;;;5053575;28;20107;-58
2023/04/15 05:27:33;;;;;;;13.35;11.95;;;5.70;99.90;;;;;;5053534;28;20464;-58
2023/04/15 05:29:59;;;;;;;14.98;13.05;;;5.80;99.90;;;;;;5051740;28;20112;-58
2023/04/15 05:32:25;;;;;;;13.32;11.88;;;5.80;99.90;;;;;;5055836;28;20458;-59
2023/04/15 05:34:51;;;;;;;13.52;12.25;;;5.80;99.90;;;;;;5054094;28;20039;-59
2023/04/15 05:37:16;;;;;;;13.65;12.25;;;5.80;99.90;;;;;;5055223;28;20078;-57
2023/04/15 05:39:42;;;;;;;15.23;13.82;;;5.80;99.90;;;;;;5054935;28;20033;-58
2023/04/15 05:42:08;;;;;;;12.35;11.15;;;5.80;99.90;;;;;;5055467;28;20091;-57
2023/04/15 05:44:34;;;;;;;14.07;12.77;;;5.80;99.90;;;;;;5052889;28;20481;-58
2023/04/15 05:47:00;;;;;;;13.85;12.55;;;5.80;99.90;;;;;;5051059;28;20033;-58
2023/04/15 05:49:26;;;;;;;14.98;13.48;;;5.80;99.90;;;;;;5050955;28;20137;-58
2023/04/15 05:51:51;;;;;;;12.95;11.85;;;5.80;99.90;;;;;;5059613;28;20463;-60
2023/04/15 05:54:17;;;;;;;13.52;12.13;;;5.80;99.90;;;;;;5054681;28;20029;-58
2023/04/15 05:56:43;;;;;;;12.90;11.60;;;5.90;99.90;;;;;;5056940;28;20021;-58
2023/04/15 05:59:08;;;;;;;14.15;11.85;;;5.90;99.90;;;;;;5057974;28;20063;-58
2023/04/15 06:01:34;;;;;;;13.52;12.25;;;5.90;99.90;;;;;;5057437;28;20370;-58
2023/04/15 06:04:00;;;;;;;14.20;13.00;;;5.90;99.90;;;;;;5056853;28;20021;-58
2023/04/15 06:06:26;;;;;;;16.55;13.30;;;5.90;99.90;;;;;;5056735;28;20108;-59
2023/04/15 06:08:52;;;;;;;13.30;11.80;;;5.90;99.90;;;;;;5059608;28;20101;-57
2023/04/15 06:11:21;;;;;;;14.90;12.48;;;6.00;99.90;;;;;;5052684;28;20025;-58
2023/04/15 06:13:47;;;;;;;15.93;12.95;;;5.90;99.90;;;;;;5059438;28;20067;-58
2023/04/15 06:16:13;;;;;;;13.98;12.57;;;5.90;99.90;;;;;;5058024;28;20358;-59
2023/04/15 06:18:39;;;;;;;25.50;12.48;;;5.90;99.90;;;;;;5057901;28;20082;-58
2023/04/15 06:21:04;;;;;;;14.00;12.60;;;5.90;99.90;;;;;;5056063;28;20710;-58
2023/04/15 06:23:32;;;;;;;15.98;12.55;;;5.90;99.90;;;;;;5055652;28;20893;-59
2023/04/15 06:25:58;;;;;;;14.63;13.18;;;5.90;99.90;;;;;;5056817;28;20056;-57
2023/04/15 06:28:24;;;;;;;14.32;12.93;;;5.90;99.90;;;;;;5056745;28;20108;-59
2023/04/15 06:30:50;;;;;;;14.18;12.82;;;6.00;99.90;;;;;;5054770;28;20024;-58
2023/04/15 06:33:15;;;;;;;15.32;12.52;;;6.00;99.90;;;;;;5060224;28;20055;-58
2023/04/15 06:35:41;;;;;;;25.17;16.42;;;6.00;99.90;;;;;;5060666;28;20039;-58
2023/04/15 06:38:06;;;;;;;26.20;15.77;;;6.00;99.90;;;;;;5057936;28;20033;-57
2023/04/15 06:40:32;;;;;;;14.93;13.27;;;6.00;99.90;;;;;;5059317;28;20478;-59
2023/04/15 06:42:58;;;;;;;20.00;15.27;;;6.10;99.90;;;;;;5062427;28;20066;-57
2023/04/15 06:45:24;;;;;;;14.25;12.55;;;6.10;99.90;;;;;;5060315;28;20447;-58
2023/04/15 06:47:50;;;;;;;15.60;14.10;;;6.20;99.90;;;;;;5062220;28;20751;-58
2023/04/15 06:50:15;;;;;;;16.55;14.68;;;6.20;99.90;;;;;;5062360;28;20028;-59
2023/04/15 06:52:41;;;;;;;15.25;13.75;;;6.20;99.90;;;;;;5061222;28;20380;-58
2023/04/15 06:55:07;;;;;;;14.02;12.63;;;6.30;99.90;;;;;;5058123;28;20071;-58
2023/04/15 06:57:33;;;;;;;16.65;13.18;;;6.30;99.90;;;;;;5060476;28;20377;-60
2023/04/15 06:59:59;;;;;;;14.80;12.65;;;6.30;99.90;;;;;;5060607;28;20029;-58
2023/04/15 07:02:25;;;;;;;16.15;13.95;;;6.40;99.90;;;;;;5061005;28;20464;-58
2023/04/15 07:04:50;;;;;;;16.80;12.38;;;6.40;99.90;;;;;;5059199;28;20119;-58
2023/04/15 07:07:16;;;;;;;14.82;12.38;;;6.40;99.90;;;;;;5058316;28;20029;-58
2023/04/15 07:09:42;;;;;;;15.25;11.60;;;6.40;99.90;;;;;;5059690;28;20089;-58
2023/04/15 07:12:08;;;;;;;12.18;11.02;;;6.40;99.90;;;;;;5058844;28;20128;-57
2023/04/15 07:14:33;;;;;;;13.38;11.25;;;6.40;99.90;;;;;;5059216;28;20116;-58
2023/04/15 07:16:59;;;;;;;13.23;11.93;;;6.30;99.90;;;;;;5062581;28;20569;-58
2023/04/15 07:19:25;;;;;;;12.38;11.23;;;6.40;99.90;;;;;;5058311;28;20032;-57
2023/04/15 07:21:51;;;;;;;14.88;11.48;;;6.40;99.90;;;;;;5060432;28;20040;-57
2023/04/15 07:24:18;;;;;;;13.63;11.63;;;6.40;99.90;;;;;;5055875;28;20041;-59
2023/04/15 07:26:44;;;;;;;12.98;11.05;;;6.50;99.90;;;;;;5056565;28;20094;-59
2023/04/15 07:29:10;;;;;;;13.15;10.35;;;6.60;99.90;;;;;;5054635;28;20442;-58
2023/04/15 07:31:36;;;;;;;11.25;10.18;;;6.50;99.90;;;;;;5057530;28;20039;-58
2023/04/15 07:34:03;;;;;;;16.63;14.82;;;6.40;99.90;;;;;;5060221;28;21146;-58
2023/04/15 07:36:30;;;;;;;18.98;16.02;;;6.50;99.90;;;;;;5062511;28;20029;-58
2023/04/15 07:38:55;;;;;;;25.65;19.00;;;6.50;99.90;;;;;;5058307;28;20064;-58
2023/04/15 07:41:22;;;;;;;17.77;15.90;;;6.50;99.90;;;;;;5054973;28;20057;-57
2023/04/15 07:43:48;;;;;;;21.17;15.25;;;6.60;99.90;;;;;;5058213;28;20639;-59
2023/04/15 07:46:14;;;;;;;13.10;11.18;;;6.50;99.90;;;;;;5060423;28;20115;-57
2023/04/15 07:48:41;;;;;;;14.70;11.95;;;6.50;99.90;;;;;;5058756;28;20131;-59
2023/04/15 07:51:07;;;;;;;13.02;11.82;;;6.50;99.90;;;;;;5058322;28;20514;-58
2023/04/15 07:53:33;;;;;;;14.25;12.85;;;6.40;99.90;;;;;;5056701;28;20045;-58
2023/04/15 07:55:58;;;;;;;14.05;12.65;;;6.40;99.90;;;;;;5056240;28;20028;-58
2023/04/15 07:58:24;;;;;;;15.63;13.30;;;6.40;99.90;;;;;;5058573;28;20020;-58
2023/04/15 08:00:50;;;;;;;11.95;10.60;;;6.30;99.90;;;;;;5058127;28;20385;-56
2023/04/15 08:03:16;;;;;;;13.45;12.07;;;6.30;99.90;;;;;;5059391;28;20056;-58
2023/04/15 08:05:41;;;;;;;14.30;12.77;;;6.30;99.90;;;;;;5060891;28;20421;-58
2023/04/15 08:08:07;;;;;;;14.23;12.82;;;6.30;99.90;;;;;;5058192;28;20028;-58
2023/04/15 08:10:33;;;;;;;14.13;12.57;;;6.30;99.90;;;;;;5058648;28;20028;-57
2023/04/15 08:12:59;;;;;;;16.80;12.73;;;6.30;99.90;;;;;;5058358;28;20021;-58
2023/04/15 08:15:26;;;;;;;13.88;12.57;;;6.30;99.90;;;;;;5059601;28;20060;-57
2023/04/15 08:17:51;;;;;;;16.00;14.40;;;6.30;99.90;;;;;;5058714;28;20032;-57
2023/04/15 08:20:17;;;;;;;18.02;14.45;;;6.30;99.90;;;;;;5054227;28;20040;-57
2023/04/15 08:22:43;;;;;;;17.80;15.90;;;6.30;99.90;;;;;;5057608;28;20043;-57
2023/04/15 08:25:09;;;;;;;16.35;14.75;;;6.30;99.90;;;;;;5056505;28;20390;-57
2023/04/15 08:27:35;;;;;;;14.73;13.23;;;6.30;99.90;;;;;;5056926;28;20820;-58
2023/04/15 08:30:01;;;;;;;16.98;13.57;;;6.30;99.90;;;;;;5057612;28;20138;-58
2023/04/15 08:32:26;;;;;;;16.85;15.05;;;6.20;99.90;;;;;;5058864;28;20033;-58
2023/04/15 08:34:52;;;;;;;17.92;15.95;;;6.20;99.90;;;;;;5057432;28;20051;-58
2023/04/15 08:37:18;;;;;;;17.75;14.70;;;6.20;99.90;;;;;;5060850;28;20023;-60
2023/04/15 08:39:44;;;;;;;21.00;17.50;;;6.30;99.90;;;;;;5052728;28;20028;-59
2023/04/15 08:42:16;;;;;;;20.85;18.52;;;6.30;99.90;;;;;;5054703;28;20052;-58
2023/04/15 08:44:43;;;;;;;21.98;17.42;;;6.30;99.90;;;;;;5055047;28;20088;-57
2023/04/15 08:47:13;;;;;;;17.23;15.38;;;6.30;99.90;;;;;;5054883;28;20033;-58
2023/04/15 08:49:42;;;;;;;17.95;15.55;;;6.30;99.90;;;;;;5055231;28;20040;-58
2023/04/15 08:52:08;;;;;;;21.63;17.10;;;6.40;99.90;;;;;;5061056;28;20081;-58
2023/04/15 08:54:35;;;;;;;23.75;17.27;;;6.40;99.90;;;;;;5043963;28;20025;-57
2023/04/15 08:57:03;;;;;;;19.40;14.73;;;6.40;99.90;;;;;;5059353;28;20040;-58
2023/04/15 08:59:30;;;;;;;19.15;13.82;;;6.50;99.90;;;;;;5057932;28;20021;-57
2023/04/15 09:01:57;;;;;;;21.60;14.82;;;6.50;99.90;;;;;;5059008;28;20028;-58
2023/04/15 09:04:23;;;;;;;15.30;13.48;;;6.50;99.90;;;;;;5057487;28;20358;-57
2023/04/15 09:06:48;;;;;;;17.88;14.27;;;6.50;99.90;;;;;;5058775;28;20028;-58
2023/04/15 09:09:14;;;;;;;17.02;15.23;;;6.50;99.90;;;;;;5057489;28;20031;-58
2023/04/15 09:11:40;;;;;;;16.10;14.43;;;6.60;99.90;;;;;;5058427;28;20028;-57
2023/04/15 09:14:06;;;;;;;16.30;14.80;;;6.60;99.90;;;;;;5062918;28;20067;-57
2023/04/15 09:16:55;;;;;;;17.58;15.77;;;6.60;99.90;;;;;;5058261;28;20828;-57
2023/04/15 09:19:23;;;;;;;15.55;13.80;;;6.60;99.90;;;;;;5056636;28;20108;-57
2023/04/15 09:21:50;;;;;;;18.83;15.02;;;6.60;99.90;;;;;;5059110;28;20054;-59
2023/04/15 09:24:16;;;;;;;17.40;14.80;;;6.70;99.90;;;;;;5062192;28;20400;-58
2023/04/15 09:26:42;;;;;;;15.02;13.52;;;6.70;99.90;;;;;;5056581;28;20032;-57
2023/04/15 09:29:12;;;;;;;16.20;14.50;;;6.80;99.90;;;;;;5057124;28;20516;-58
2023/04/15 09:31:38;;;;;;;15.73;14.13;;;6.80;99.90;;;;;;5059795;28;20086;-58
2023/04/15 09:34:04;;;;;;;16.00;14.27;;;6.80;99.90;;;;;;5059982;28;20029;-59
2023/04/15 09:36:45;;;;;;;16.60;14.98;;;6.80;99.90;;;;;;5058849;28;20485;-57
2023/04/15 09:39:11;;;;;;;15.38;13.88;;;6.80;99.90;;;;;;5056367;28;20040;-57
2023/04/15 09:41:36;;;;;;;18.15;16.33;;;6.90;99.90;;;;;;5058331;28;20033;-57
2023/04/15 09:44:03;;;;;;;15.30;13.90;;;6.90;99.90;;;;;;5057707;28;20496;-58
2023/04/15 09:46:49;;;;;;;16.13;14.27;;;7.00;99.90;;;;;;5057626;28;20067;-56
2023/04/15 09:49:16;;;;;;;13.70;12.38;;;7.20;99.90;;;;;;5057447;28;20516;-58
2023/04/15 09:51:43;;;;;;;12.68;11.57;;;7.30;99.90;;;;;;5038846;28;20485;-58
2023/04/15 09:54:08;;;;;;;12.60;10.98;;;7.30;99.90;;;;;;5057292;28;20029;-58
2023/04/15 09:56:37;;;;;;;12.10;10.98;;;7.40;99.90;;;;;;5057556;28;20099;-58
2023/04/15 09:59:04;;;;;;;11.15;10.10;;;7.40;99.90;;;;;;5063021;28;20120;-58
2023/04/15 10:01:30;;;;;;;10.50;9.55;;;7.40;99.90;;;;;;5057620;28;20127;-58
2023/04/15 10:03:56;;;;;;;10.55;9.63;;;7.40;99.90;;;;;;5059043;28;20052;-57
2023/04/15 10:06:25;;;;;;;9.75;8.85;;;7.40;99.90;;;;;;5057318;28;20040;-57
2023/04/15 10:08:51;;;;;;;9.65;8.70;;;7.40;99.90;;;;;;5061074;28;20075;-58
2023/04/15 10:11:18;;;;;;;10.15;9.18;;;7.40;99.90;;;;;;5063089;28;20052;-58
2023/04/15 10:13:46;;;;;;;9.02;8.15;;;7.40;99.90;;;;;;5063560;28;20033;-57
2023/04/15 10:16:14;;;;;;;8.80;8.00;;;7.40;99.90;;;;;;5063251;28;20040;-57
2023/04/15 10:18:43;;;;;;;8.85;8.13;;;7.40;99.90;;;;;;5064456;28;20040;-58
2023/04/15 10:21:10;;;;;;;7.60;7.00;;;7.30;99.90;;;;;;5061215;28;20040;-57
2023/04/15 10:23:36;;;;;;;8.10;7.40;;;7.30;99.90;;;;;;5059635;28;20842;-57
2023/04/15 10:26:05;;;;;;;7.93;7.22;;;7.20;99.90;;;;;;5065101;28;20036;-57
2023/04/15 10:28:30;;;;;;;9.30;8.50;;;7.10;99.90;;;;;;5059625;28;20028;-57
2023/04/15 10:30:58;;;;;;;8.82;8.05;;;7.20;99.90;;;;;;5064646;28;20047;-57
2023/04/15 10:33:24;;;;;;;8.45;7.75;;;7.20;99.90;;;;;;5064115;28;20033;-59
2023/04/15 10:35:52;;;;;;;8.25;7.45;;;7.30;99.90;;;;;;5062561;28;20500;-58
2023/04/15 10:38:41;;;;;;;8.20;7.60;;;7.30;99.90;;;;;;5062556;28;20520;-57
2023/04/15 10:41:13;;;;;;;11.95;10.80;;;7.30;99.90;;;;;;5064854;28;20492;-58
2023/04/15 10:43:44;;;;;;;9.43;8.65;;;7.30;99.90;;;;;;5070223;28;20523;-58
2023/04/15 10:46:10;;;;;;;9.23;8.32;;;7.30;99.90;;;;;;5062967;28;20078;-57
2023/04/15 10:48:35;;;;;;;8.88;8.13;;;7.30;99.90;;;;;;5060168;28;20064;-57
2023/04/15 10:51:02;;;;;;;8.95;7.80;;;7.30;99.90;;;;;;5061438;28;20081;-57
2023/04/15 10:53:29;;;;;;;9.30;8.50;;;7.40;99.90;;;;;;5059422;28;20044;-58
2023/04/15 10:55:56;;;;;;;8.88;8.18;;;7.40;99.90;;;;;;5058771;28;20044;-57
2023/04/15 10:58:24;;;;;;;8.32;7.57;;;7.40;99.90;;;;;;5059976;28;20744;-58
2023/04/15 11:00:52;;;;;;;9.00;8.20;;;7.40;99.90;;;;;;5060897;28;20023;-57
2023/04/15 11:03:40;;;;;;;11.85;10.75;;;7.40;99.90;;;;;;5058895;28;20653;-57
2023/04/15 11:06:06;;;;;;;8.55;7.85;;;7.30;99.90;;;;;;5059475;28;20037;-57
2023/04/15 11:08:58;;;;;;;9.05;8.13;;;7.30;99.90;;;;;;5062239;28;20029;-58
2023/04/15 11:12:03;;;;;;;8.93;7.30;;;7.30;99.90;;;;;;5058302;28;20029;-58
2023/04/15 11:14:29;;;;;;;7.43;6.82;;;7.40;99.90;;;;;;5060439;28;20479;-57
2023/04/15 11:16:54;;;;;;;6.60;6.00;;;7.40;99.90;;;;;;5057876;28;20124;-57
2023/04/15 11:19:20;;;;;;;6.40;5.70;;;7.60;99.90;;;;;;5062479;28;20021;-56
2023/04/15 11:21:46;;;;;;;6.43;5.88;;;7.60;99.90;;;;;;5060475;28;20040;-58
2023/04/15 11:24:26;;;;;;;6.72;6.22;;;7.70;99.90;;;;;;5059656;28;20405;-56
2023/04/15 11:26:57;;;;;;;5.72;5.22;;;7.80;99.90;;;;;;5061663;28;20032;-57
2023/04/15 11:29:31;;;;;;;5.93;5.32;;;7.90;99.90;;;;;;5059424;28;20028;-57
2023/04/15 11:32:08;;;;;;;4.97;4.57;;;8.00;99.90;;;;;;5057628;28;20033;-58
2023/04/15 11:34:34;;;;;;;5.93;5.05;;;8.10;99.90;;;;;;5061897;28;20706;-58
2023/04/15 11:37:04;;;;;;;5.57;5.07;;;8.10;99.90;;;;;;5060819;28;20013;-58
2023/04/15 11:39:29;;;;;;;5.03;4.63;;;8.10;99.90;;;;;;5055276;28;20082;-59
2023/04/15 11:41:55;;;;;;;4.85;4.45;;;8.10;99.90;;;;;;5058252;28;20044;-58
2023/04/15 11:44:21;;;;;;;4.60;4.18;;;8.10;99.90;;;;;;5060895;28;20566;-58
2023/04/15 11:46:46;;;;;;;5.38;4.97;;;8.10;99.90;;;;;;5060520;28;20021;-59
2023/04/15 11:49:25;;;;;;;4.82;4.43;;;8.10;99.90;;;;;;5058506;28;20028;-57
2023/04/15 11:51:51;;;;;;;5.28;4.78;;;8.10;99.90;;;;;;5060326;28;20048;-57
2023/04/15 11:54:19;;;;;;;4.88;4.47;;;8.30;99.90;;;;;;5058218;28;20087;-59
2023/04/15 11:56:50;;;;;;;4.72;4.32;;;8.30;99.90;;;;;;5059938;28;20029;-58
2023/04/15 11:59:16;;;;;;;4.97;4.57;;;8.40;99.90;;;;;;5060052;28;20497;-59
2023/04/15 12:01:42;;;;;;;4.97;4.57;;;8.40;99.90;;;;;;5058754;28;20033;-58
2023/04/15 12:04:26;;;;;;;4.00;3.70;;;8.40;99.90;;;;;;5080243;28;20111;-58
2023/04/15 12:06:52;;;;;;;4.40;4.05;;;8.50;99.90;;;;;;5058062;28;20052;-58
2023/04/15 12:09:19;;;;;;;5.28;4.78;;;8.50;99.90;;;;;;5058803;28;20029;-57
2023/04/15 12:11:54;;;;;;;4.68;4.28;;;8.40;99.90;;;;;;5058467;28;20031;-59
2023/04/15 12:14:28;;;;;;;4.85;4.40;;;8.40;99.90;;;;;;5058262;28;20028;-57
2023/04/15 12:17:01;;;;;;;6.13;5.60;;;8.40;99.90;;;;;;5058960;28;20041;-58
2023/04/15 12:19:35;;;;;;;5.10;4.70;;;8.50;99.90;;;;;;5058697;28;20021;-58
2023/04/15 12:22:04;;;;;;;5.03;4.63;;;8.50;99.90;;;;;;5057369;28;20032;-58
2023/04/15 12:24:34;;;;;;;8.20;7.57;;;8.50;99.90;;;;;;5059502;28;20029;-57
2023/04/15 12:27:05;;;;;;;4.85;4.45;;;8.50;99.90;;;;;;5058101;28;20082;-56
2023/04/15 12:29:33;;;;;;;5.15;4.70;;;8.50;99.90;;;;;;5059096;28;20041;-57
2023/04/15 12:32:05;;;;;;;5.70;5.20;;;8.40;99.90;;;;;;5058148;28;20036;-58
2023/04/15 12:34:33;;;;;;;5.80;5.32;;;8.40;99.90;;;;;;5057189;28;20810;-58
2023/04/15 12:37:03;;;;;;;7.65;7.05;;;8.40;99.90;;;;;;5058562;28;20025;-58
2023/04/15 12:39:31;;;;;;;8.02;7.43;;;8.40;99.90;;;;;;5059300;28;20468;-57
2023/04/15 12:41:58;;;;;;;4.20;3.80;;;8.40;99.90;;;;;;5061226;28;20032;-58
2023/04/15 12:44:24;;;;;;;8.48;7.10;;;8.40;99.90;;;;;;5058905;28;20733;-58
2023/04/15 12:46:52;;;;;;;6.18;5.57;;;8.40;99.90;;;;;;5058741;28;20033;-57